sensor_id;sensor_type;location;lat;lon;timestamp;P1;durP1;ratioP1;P2;durP2;ratioP2
72358;SDS011;60317;48.880;-0.862;2023-07-28T00:00:35;0.40;;;0.40;;
72358;SDS011;60317;48.880;-0.862;2023-07-28T00:03:01;0.20;;;0.20;;
72358;SDS011;60317;48.880;-0.862;2023-07-28T00:05:28;0.47;;;0.22;;
72358;SDS011;60317;48.880;-0.862;2023-07-28T00:07:55;0.40;;;0.30;;
72358;SDS011;60317;48.880;-0.862;2023-07-28T00:10:22;0.13;;;0.13;;
72358;SDS011;60317;48.880;-0.862;2023-07-28T00:12:49;0.20;;;0.20;;
72358;SDS011;60317;48.880;-0.862;2023-07-28T00:15:15;0.40;;;0.30;;
72358;SDS011;60317;48.880;-0.862;2023-07-28T00:17:42;0.43;;;0.30;;
72358;SDS011;60317;48.880;-0.862;2023-07-28T00:20:09;0.30;;;0.30;;
72358;SDS011;60317;48.880;-0.862;2023-07-28T00:22:36;0.20;;;0.20;;
72358;SDS011;60317;48.880;-0.862;2023-07-28T00:25:03;1.85;;;0.40;;
72358;SDS011;60317;48.880;-0.862;2023-07-28T00:27:31;0.20;;;0.20;;
72358;SDS011;60317;48.880;-0.862;2023-07-28T00:29:57;0.85;;;0.40;;
72358;SDS011;60317;48.880;-0.862;2023-07-28T00:32:24;0.32;;;0.22;;
72358;SDS011;60317;48.880;-0.862;2023-07-28T00:34:51;0.75;;;0.40;;
72358;SDS011;60317;48.880;-0.862;2023-07-28T00:37:17;0.73;;;0.30;;
72358;SDS011;60317;48.880;-0.862;2023-07-28T00:39:44;0.55;;;0.40;;
72358;SDS011;60317;48.880;-0.862;2023-07-28T00:42:10;1.65;;;0.30;;
72358;SDS011;60317;48.880;-0.862;2023-07-28T00:44:38;0.90;;;0.60;;
72358;SDS011;60317;48.880;-0.862;2023-07-28T00:47:04;0.82;;;0.38;;
72358;SDS011;60317;48.880;-0.862;2023-07-28T00:49:31;0.32;;;0.25;;
72358;SDS011;60317;48.880;-0.862;2023-07-28T00:51:58;0.20;;;0.10;;
72358;SDS011;60317;48.880;-0.862;2023-07-28T00:54:24;0.82;;;0.40;;
72358;SDS011;60317;48.880;-0.862;2023-07-28T00:56:51;0.13;;;0.13;;
72358;SDS011;60317;48.880;-0.862;2023-07-28T00:59:17;0.35;;;0.30;;
72358;SDS011;60317;48.880;-0.862;2023-07-28T01:01:45;0.38;;;0.10;;
72358;SDS011;60317;48.880;-0.862;2023-07-28T01:04:12;0.30;;;0.30;;
72358;SDS011;60317;48.880;-0.862;2023-07-28T01:06:40;1.50;;;0.60;;
72358;SDS011;60317;48.880;-0.862;2023-07-28T01:09:15;1.88;;;0.40;;
72358;SDS011;60317;48.880;-0.862;2023-07-28T01:14:25;0.40;;;0.30;;
72358;SDS011;60317;48.880;-0.862;2023-07-28T01:16:53;0.90;;;0.50;;
72358;SDS011;60317;48.880;-0.862;2023-07-28T01:19:20;0.65;;;0.40;;
72358;SDS011;60317;48.880;-0.862;2023-07-28T01:21:48;1.50;;;0.50;;
72358;SDS011;60317;48.880;-0.862;2023-07-28T01:24:20;0.30;;;0.22;;
72358;SDS011;60317;48.880;-0.862;2023-07-28T01:26:55;1.55;;;0.50;;
72358;SDS011;60317;48.880;-0.862;2023-07-28T01:29:22;1.77;;;0.50;;
72358;SDS011;60317;48.880;-0.862;2023-07-28T01:31:50;0.32;;;0.28;;
72358;SDS011;60317;48.880;-0.862;2023-07-28T01:34:17;0.20;;;0.20;;
72358;SDS011;60317;48.880;-0.862;2023-07-28T01:36:43;1.98;;;0.50;;
72358;SDS011;60317;48.880;-0.862;2023-07-28T01:39:10;0.63;;;0.20;;
72358;SDS011;60317;48.880;-0.862;2023-07-28T01:41:37;0.20;;;0.20;;
72358;SDS011;60317;48.880;-0.862;2023-07-28T01:44:04;1.38;;;0.40;;
72358;SDS011;60317;48.880;-0.862;2023-07-28T01:46:31;0.70;;;0.40;;
72358;SDS011;60317;48.880;-0.862;2023-07-28T01:48:58;0.73;;;0.55;;
72358;SDS011;60317;48.880;-0.862;2023-07-28T01:51:25;1.48;;;0.30;;
72358;SDS011;60317;48.880;-0.862;2023-07-28T01:53:51;2.80;;;0.30;;
72358;SDS011;60317;48.880;-0.862;2023-07-28T01:56:18;0.98;;;0.20;;
72358;SDS011;60317;48.880;-0.862;2023-07-28T01:58:44;2.20;;;0.60;;
72358;SDS011;60317;48.880;-0.862;2023-07-28T02:01:13;0.85;;;0.40;;
72358;SDS011;60317;48.880;-0.862;2023-07-28T02:03:40;0.52;;;0.22;;
72358;SDS011;60317;48.880;-0.862;2023-07-28T02:06:06;1.05;;;0.38;;
72358;SDS011;60317;48.880;-0.862;2023-07-28T02:08:33;1.95;;;0.40;;
72358;SDS011;60317;48.880;-0.862;2023-07-28T02:10:59;0.38;;;0.30;;
72358;SDS011;60317;48.880;-0.862;2023-07-28T02:13:26;0.50;;;0.38;;
72358;SDS011;60317;48.880;-0.862;2023-07-28T02:15:52;0.32;;;0.30;;
72358;SDS011;60317;48.880;-0.862;2023-07-28T02:18:20;1.55;;;0.70;;
72358;SDS011;60317;48.880;-0.862;2023-07-28T02:20:47;0.43;;;0.40;;
72358;SDS011;60317;48.880;-0.862;2023-07-28T02:23:14;0.55;;;0.30;;
72358;SDS011;60317;48.880;-0.862;2023-07-28T02:25:40;0.47;;;0.32;;
72358;SDS011;60317;48.880;-0.862;2023-07-28T02:28:08;1.23;;;0.30;;
72358;SDS011;60317;48.880;-0.862;2023-07-28T02:30:36;1.05;;;0.30;;
72358;SDS011;60317;48.880;-0.862;2023-07-28T02:33:03;0.68;;;0.40;;
72358;SDS011;60317;48.880;-0.862;2023-07-28T02:35:31;0.75;;;0.30;;
72358;SDS011;60317;48.880;-0.862;2023-07-28T02:37:57;0.57;;;0.35;;
72358;SDS011;60317;48.880;-0.862;2023-07-28T02:40:24;0.70;;;0.40;;
72358;SDS011;60317;48.880;-0.862;2023-07-28T02:42:50;1.58;;;0.65;;
72358;SDS011;60317;48.880;-0.862;2023-07-28T02:45:17;0.68;;;0.20;;
72358;SDS011;60317;48.880;-0.862;2023-07-28T02:47:43;0.88;;;0.40;;
72358;SDS011;60317;48.880;-0.862;2023-07-28T02:50:10;0.80;;;0.50;;
72358;SDS011;60317;48.880;-0.862;2023-07-28T02:52:38;1.08;;;0.47;;
72358;SDS011;60317;48.880;-0.862;2023-07-28T02:55:04;0.73;;;0.40;;
72358;SDS011;60317;48.880;-0.862;2023-07-28T02:57:31;1.02;;;0.40;;
72358;SDS011;60317;48.880;-0.862;2023-07-28T02:59:57;0.45;;;0.43;;
72358;SDS011;60317;48.880;-0.862;2023-07-28T03:02:24;0.82;;;0.38;;
72358;SDS011;60317;48.880;-0.862;2023-07-28T03:04:51;1.02;;;0.55;;
72358;SDS011;60317;48.880;-0.862;2023-07-28T03:07:17;1.23;;;0.60;;
72358;SDS011;60317;48.880;-0.862;2023-07-28T03:09:45;1.60;;;0.50;;
72358;SDS011;60317;48.880;-0.862;2023-07-28T03:12:11;1.33;;;0.50;;
72358;SDS011;60317;48.880;-0.862;2023-07-28T03:14:38;0.43;;;0.30;;
72358;SDS011;60317;48.880;-0.862;2023-07-28T03:17:05;0.30;;;0.30;;
72358;SDS011;60317;48.880;-0.862;2023-07-28T03:19:31;1.08;;;0.57;;
72358;SDS011;60317;48.880;-0.862;2023-07-28T03:21:58;0.50;;;0.30;;
72358;SDS011;60317;48.880;-0.862;2023-07-28T03:24:24;1.05;;;0.43;;
72358;SDS011;60317;48.880;-0.862;2023-07-28T03:26:52;0.30;;;0.30;;
72358;SDS011;60317;48.880;-0.862;2023-07-28T03:29:19;0.52;;;0.38;;
72358;SDS011;60317;48.880;-0.862;2023-07-28T03:31:45;0.80;;;0.40;;
72358;SDS011;60317;48.880;-0.862;2023-07-28T03:34:12;1.35;;;0.40;;
72358;SDS011;60317;48.880;-0.862;2023-07-28T03:36:38;0.45;;;0.45;;
72358;SDS011;60317;48.880;-0.862;2023-07-28T03:39:05;1.88;;;0.50;;
72358;SDS011;60317;48.880;-0.862;2023-07-28T03:41:31;1.38;;;0.47;;
72358;SDS011;60317;48.880;-0.862;2023-07-28T03:43:59;0.43;;;0.30;;
72358;SDS011;60317;48.880;-0.862;2023-07-28T03:46:25;1.15;;;0.40;;
72358;SDS011;60317;48.880;-0.862;2023-07-28T03:48:56;0.73;;;0.70;;
72358;SDS011;60317;48.880;-0.862;2023-07-28T03:51:22;2.10;;;0.38;;
72358;SDS011;60317;48.880;-0.862;2023-07-28T03:53:49;0.77;;;0.40;;
72358;SDS011;60317;48.880;-0.862;2023-07-28T03:56:15;1.10;;;0.32;;
72358;SDS011;60317;48.880;-0.862;2023-07-28T03:58:42;0.65;;;0.30;;
72358;SDS011;60317;48.880;-0.862;2023-07-28T04:01:09;0.35;;;0.30;;
72358;SDS011;60317;48.880;-0.862;2023-07-28T04:03:36;0.32;;;0.30;;
72358;SDS011;60317;48.880;-0.862;2023-07-28T04:06:05;2.15;;;0.40;;
72358;SDS011;60317;48.880;-0.862;2023-07-28T04:08:35;0.43;;;0.30;;
72358;SDS011;60317;48.880;-0.862;2023-07-28T04:11:02;3.00;;;0.30;;
72358;SDS011;60317;48.880;-0.862;2023-07-28T04:13:28;1.25;;;0.43;;
72358;SDS011;60317;48.880;-0.862;2023-07-28T04:15:55;2.60;;;0.43;;
72358;SDS011;60317;48.880;-0.862;2023-07-28T04:18:23;0.70;;;0.50;;
72358;SDS011;60317;48.880;-0.862;2023-07-28T04:20:49;0.57;;;0.40;;
72358;SDS011;60317;48.880;-0.862;2023-07-28T04:23:16;1.58;;;0.30;;
72358;SDS011;60317;48.880;-0.862;2023-07-28T04:25:43;0.43;;;0.40;;
72358;SDS011;60317;48.880;-0.862;2023-07-28T04:28:09;0.88;;;0.60;;
72358;SDS011;60317;48.880;-0.862;2023-07-28T04:30:36;0.68;;;0.50;;
72358;SDS011;60317;48.880;-0.862;2023-07-28T04:33:02;0.25;;;0.20;;
72358;SDS011;60317;48.880;-0.862;2023-07-28T04:35:30;0.40;;;0.30;;
72358;SDS011;60317;48.880;-0.862;2023-07-28T04:37:57;0.60;;;0.30;;
72358;SDS011;60317;48.880;-0.862;2023-07-28T04:40:24;0.47;;;0.28;;
72358;SDS011;60317;48.880;-0.862;2023-07-28T04:42:50;1.60;;;0.30;;
72358;SDS011;60317;48.880;-0.862;2023-07-28T04:45:16;1.65;;;0.40;;
72358;SDS011;60317;48.880;-0.862;2023-07-28T04:47:43;1.85;;;0.28;;
72358;SDS011;60317;48.880;-0.862;2023-07-28T04:50:09;0.82;;;0.28;;
72358;SDS011;60317;48.880;-0.862;2023-07-28T04:52:37;0.57;;;0.45;;
72358;SDS011;60317;48.880;-0.862;2023-07-28T04:55:04;1.15;;;0.50;;
72358;SDS011;60317;48.880;-0.862;2023-07-28T04:57:31;0.77;;;0.57;;
72358;SDS011;60317;48.880;-0.862;2023-07-28T04:59:57;0.73;;;0.40;;
72358;SDS011;60317;48.880;-0.862;2023-07-28T05:02:24;1.38;;;0.43;;
72358;SDS011;60317;48.880;-0.862;2023-07-28T05:04:50;1.08;;;0.55;;
72358;SDS011;60317;48.880;-0.862;2023-07-28T05:07:17;0.30;;;0.30;;
72358;SDS011;60317;48.880;-0.862;2023-07-28T05:09:45;0.80;;;0.43;;
72358;SDS011;60317;48.880;-0.862;2023-07-28T05:12:11;0.60;;;0.32;;
72358;SDS011;60317;48.880;-0.862;2023-07-28T05:14:38;1.65;;;0.50;;
72358;SDS011;60317;48.880;-0.862;2023-07-28T05:17:04;0.32;;;0.28;;
72358;SDS011;60317;48.880;-0.862;2023-07-28T05:19:31;0.68;;;0.40;;
72358;SDS011;60317;48.880;-0.862;2023-07-28T05:21:58;1.08;;;0.45;;
72358;SDS011;60317;48.880;-0.862;2023-07-28T05:24:24;1.23;;;0.40;;
72358;SDS011;60317;48.880;-0.862;2023-07-28T05:26:52;2.72;;;0.40;;
72358;SDS011;60317;48.880;-0.862;2023-07-28T05:29:19;1.33;;;0.43;;
72358;SDS011;60317;48.880;-0.862;2023-07-28T05:31:45;0.32;;;0.30;;
72358;SDS011;60317;48.880;-0.862;2023-07-28T05:34:12;0.30;;;0.30;;
72358;SDS011;60317;48.880;-0.862;2023-07-28T05:36:39;2.25;;;0.35;;
72358;SDS011;60317;48.880;-0.862;2023-07-28T05:39:06;1.10;;;0.50;;
72358;SDS011;60317;48.880;-0.862;2023-07-28T05:41:32;0.93;;;0.40;;
72358;SDS011;60317;48.880;-0.862;2023-07-28T05:44:01;0.60;;;0.40;;
72358;SDS011;60317;48.880;-0.862;2023-07-28T05:46:27;0.75;;;0.43;;
72358;SDS011;60317;48.880;-0.862;2023-07-28T05:48:54;0.45;;;0.45;;
72358;SDS011;60317;48.880;-0.862;2023-07-28T05:51:20;1.35;;;0.63;;
72358;SDS011;60317;48.880;-0.862;2023-07-28T05:53:47;1.55;;;0.65;;
72358;SDS011;60317;48.880;-0.862;2023-07-28T05:56:13;1.48;;;0.57;;
72358;SDS011;60317;48.880;-0.862;2023-07-28T05:58:40;0.17;;;0.17;;
72358;SDS011;60317;48.880;-0.862;2023-07-28T06:01:08;0.30;;;0.20;;
72358;SDS011;60317;48.880;-0.862;2023-07-28T06:03:34;3.47;;;0.70;;
72358;SDS011;60317;48.880;-0.862;2023-07-28T06:06:01;0.50;;;0.30;;
72358;SDS011;60317;48.880;-0.862;2023-07-28T06:08:28;0.40;;;0.40;;
72358;SDS011;60317;48.880;-0.862;2023-07-28T06:10:54;0.93;;;0.40;;
72358;SDS011;60317;48.880;-0.862;2023-07-28T06:13:21;0.65;;;0.35;;
72358;SDS011;60317;48.880;-0.862;2023-07-28T06:15:47;0.30;;;0.28;;
72358;SDS011;60317;48.880;-0.862;2023-07-28T06:18:15;0.52;;;0.35;;
72358;SDS011;60317;48.880;-0.862;2023-07-28T06:20:42;0.52;;;0.25;;
72358;SDS011;60317;48.880;-0.862;2023-07-28T06:23:09;0.85;;;0.40;;
72358;SDS011;60317;48.880;-0.862;2023-07-28T06:25:35;0.30;;;0.30;;
72358;SDS011;60317;48.880;-0.862;2023-07-28T06:28:02;0.35;;;0.30;;
72358;SDS011;60317;48.880;-0.862;2023-07-28T06:30:28;0.82;;;0.55;;
72358;SDS011;60317;48.880;-0.862;2023-07-28T06:32:55;1.45;;;0.60;;
72358;SDS011;60317;48.880;-0.862;2023-07-28T06:35:23;0.85;;;0.20;;
72358;SDS011;60317;48.880;-0.862;2023-07-28T06:37:49;0.73;;;0.30;;
72358;SDS011;60317;48.880;-0.862;2023-07-28T06:40:16;0.68;;;0.40;;
72358;SDS011;60317;48.880;-0.862;2023-07-28T06:42:43;2.03;;;0.70;;
72358;SDS011;60317;48.880;-0.862;2023-07-28T06:45:09;1.30;;;0.40;;
72358;SDS011;60317;48.880;-0.862;2023-07-28T06:47:36;1.05;;;0.47;;
72358;SDS011;60317;48.880;-0.862;2023-07-28T06:50:02;0.40;;;0.30;;
72358;SDS011;60317;48.880;-0.862;2023-07-28T06:52:30;4.60;;;0.50;;
72358;SDS011;60317;48.880;-0.862;2023-07-28T06:54:57;0.40;;;0.40;;
72358;SDS011;60317;48.880;-0.862;2023-07-28T06:57:23;1.75;;;0.45;;
72358;SDS011;60317;48.880;-0.862;2023-07-28T06:59:50;0.65;;;0.40;;
72358;SDS011;60317;48.880;-0.862;2023-07-28T07:02:17;0.35;;;0.35;;
72358;SDS011;60317;48.880;-0.862;2023-07-28T07:04:43;0.47;;;0.40;;
72358;SDS011;60317;48.880;-0.862;2023-07-28T07:07:10;1.35;;;0.57;;
72358;SDS011;60317;48.880;-0.862;2023-07-28T07:09:38;0.40;;;0.38;;
72358;SDS011;60317;48.880;-0.862;2023-07-28T07:12:04;2.47;;;0.55;;
72358;SDS011;60317;48.880;-0.862;2023-07-28T07:14:31;0.90;;;0.68;;
72358;SDS011;60317;48.880;-0.862;2023-07-28T07:16:58;1.80;;;0.50;;
72358;SDS011;60317;48.880;-0.862;2023-07-28T07:19:24;0.70;;;0.45;;
72358;SDS011;60317;48.880;-0.862;2023-07-28T07:21:51;0.32;;;0.32;;
72358;SDS011;60317;48.880;-0.862;2023-07-28T07:24:17;0.75;;;0.40;;
72358;SDS011;60317;48.880;-0.862;2023-07-28T07:26:45;0.57;;;0.50;;
72358;SDS011;60317;48.880;-0.862;2023-07-28T07:29:11;1.10;;;0.60;;
72358;SDS011;60317;48.880;-0.862;2023-07-28T07:31:38;0.95;;;0.50;;
72358;SDS011;60317;48.880;-0.862;2023-07-28T07:34:05;1.02;;;0.52;;
72358;SDS011;60317;48.880;-0.862;2023-07-28T07:36:32;0.57;;;0.57;;
72358;SDS011;60317;48.880;-0.862;2023-07-28T07:38:58;1.27;;;0.60;;
72358;SDS011;60317;48.880;-0.862;2023-07-28T07:41:25;0.60;;;0.55;;
72358;SDS011;60317;48.880;-0.862;2023-07-28T07:43:53;0.55;;;0.55;;
72358;SDS011;60317;48.880;-0.862;2023-07-28T07:46:20;0.50;;;0.45;;
72358;SDS011;60317;48.880;-0.862;2023-07-28T07:48:46;0.82;;;0.47;;
72358;SDS011;60317;48.880;-0.862;2023-07-28T07:51:13;0.65;;;0.50;;
72358;SDS011;60317;48.880;-0.862;2023-07-28T07:53:40;0.50;;;0.38;;
72358;SDS011;60317;48.880;-0.862;2023-07-28T07:56:06;2.05;;;0.30;;
72358;SDS011;60317;48.880;-0.862;2023-07-28T07:58:33;0.65;;;0.47;;
72358;SDS011;60317;48.880;-0.862;2023-07-28T08:01:01;1.65;;;0.50;;
72358;SDS011;60317;48.880;-0.862;2023-07-28T08:03:28;2.38;;;0.60;;
72358;SDS011;60317;48.880;-0.862;2023-07-28T08:05:55;1.58;;;0.50;;
72358;SDS011;60317;48.880;-0.862;2023-07-28T08:08:21;0.90;;;0.40;;
72358;SDS011;60317;48.880;-0.862;2023-07-28T08:10:48;0.98;;;0.60;;
72358;SDS011;60317;48.880;-0.862;2023-07-28T08:13:15;1.38;;;0.80;;
72358;SDS011;60317;48.880;-0.862;2023-07-28T08:15:42;0.98;;;0.80;;
72358;SDS011;60317;48.880;-0.862;2023-07-28T08:18:11;0.57;;;0.57;;
72358;SDS011;60317;48.880;-0.862;2023-07-28T08:20:38;1.67;;;0.70;;
72358;SDS011;60317;48.880;-0.862;2023-07-28T08:23:05;1.42;;;0.68;;
72358;SDS011;60317;48.880;-0.862;2023-07-28T08:25:32;1.27;;;0.60;;
72358;SDS011;60317;48.880;-0.862;2023-07-28T08:27:59;0.93;;;0.70;;
72358;SDS011;60317;48.880;-0.862;2023-07-28T08:30:25;1.25;;;0.90;;
72358;SDS011;60317;48.880;-0.862;2023-07-28T08:32:52;1.45;;;1.02;;
72358;SDS011;60317;48.880;-0.862;2023-07-28T08:35:20;1.23;;;0.70;;
72358;SDS011;60317;48.880;-0.862;2023-07-28T08:37:46;1.15;;;0.60;;
72358;SDS011;60317;48.880;-0.862;2023-07-28T08:40:13;1.83;;;0.85;;
72358;SDS011;60317;48.880;-0.862;2023-07-28T08:42:40;0.80;;;0.60;;
72358;SDS011;60317;48.880;-0.862;2023-07-28T08:45:07;1.38;;;0.70;;
72358;SDS011;60317;48.880;-0.862;2023-07-28T08:47:34;0.68;;;0.47;;
72358;SDS011;60317;48.880;-0.862;2023-07-28T08:50:01;2.25;;;0.65;;
72358;SDS011;60317;48.880;-0.862;2023-07-28T08:52:29;1.45;;;0.77;;
72358;SDS011;60317;48.880;-0.862;2023-07-28T08:54:56;2.15;;;0.70;;
72358;SDS011;60317;48.880;-0.862;2023-07-28T08:57:22;1.17;;;0.52;;
72358;SDS011;60317;48.880;-0.862;2023-07-28T08:59:49;1.60;;;1.00;;
72358;SDS011;60317;48.880;-0.862;2023-07-28T09:02:16;2.13;;;0.75;;
72358;SDS011;60317;48.880;-0.862;2023-07-28T09:04:44;0.98;;;0.68;;
72358;SDS011;60317;48.880;-0.862;2023-07-28T09:07:11;2.13;;;0.85;;
72358;SDS011;60317;48.880;-0.862;2023-07-28T09:09:40;1.10;;;0.70;;
72358;SDS011;60317;48.880;-0.862;2023-07-28T09:12:07;2.63;;;0.70;;
72358;SDS011;60317;48.880;-0.862;2023-07-28T09:14:34;1.17;;;0.95;;
72358;SDS011;60317;48.880;-0.862;2023-07-28T09:17:05;2.10;;;0.95;;
72358;SDS011;60317;48.880;-0.862;2023-07-28T09:19:33;1.08;;;0.80;;
72358;SDS011;60317;48.880;-0.862;2023-07-28T09:22:00;2.50;;;1.02;;
72358;SDS011;60317;48.880;-0.862;2023-07-28T09:24:30;1.88;;;1.10;;
72358;SDS011;60317;48.880;-0.862;2023-07-28T09:26:59;1.42;;;0.88;;
72358;SDS011;60317;48.880;-0.862;2023-07-28T09:29:26;2.28;;;1.02;;
72358;SDS011;60317;48.880;-0.862;2023-07-28T09:31:53;1.58;;;0.93;;
72358;SDS011;60317;48.880;-0.862;2023-07-28T09:34:28;1.73;;;0.85;;
72358;SDS011;60317;48.880;-0.862;2023-07-28T09:36:57;1.83;;;0.77;;
72358;SDS011;60317;48.880;-0.862;2023-07-28T09:39:24;2.67;;;0.82;;
72358;SDS011;60317;48.880;-0.862;2023-07-28T09:41:52;2.25;;;1.25;;
72358;SDS011;60317;48.880;-0.862;2023-07-28T09:44:20;6.28;;;1.10;;
72358;SDS011;60317;48.880;-0.862;2023-07-28T09:46:48;3.17;;;0.82;;
72358;SDS011;60317;48.880;-0.862;2023-07-28T09:49:19;2.35;;;0.90;;
72358;SDS011;60317;48.880;-0.862;2023-07-28T09:51:48;1.48;;;1.00;;
72358;SDS011;60317;48.880;-0.862;2023-07-28T09:54:18;1.58;;;0.90;;
72358;SDS011;60317;48.880;-0.862;2023-07-28T09:56:49;5.50;;;1.00;;
72358;SDS011;60317;48.880;-0.862;2023-07-28T09:59:16;2.38;;;1.10;;
72358;SDS011;60317;48.880;-0.862;2023-07-28T10:01:45;2.83;;;1.13;;
72358;SDS011;60317;48.880;-0.862;2023-07-28T10:04:13;1.75;;;1.00;;
72358;SDS011;60317;48.880;-0.862;2023-07-28T10:06:40;3.15;;;0.95;;
72358;SDS011;60317;48.880;-0.862;2023-07-28T10:09:06;1.20;;;0.93;;
72358;SDS011;60317;48.880;-0.862;2023-07-28T10:11:33;1.35;;;1.00;;
72358;SDS011;60317;48.880;-0.862;2023-07-28T10:14:00;2.03;;;1.05;;
72358;SDS011;60317;48.880;-0.862;2023-07-28T10:16:29;1.88;;;1.02;;
72358;SDS011;60317;48.880;-0.862;2023-07-28T10:18:58;2.13;;;0.90;;
72358;SDS011;60317;48.880;-0.862;2023-07-28T10:21:27;1.60;;;1.00;;
72358;SDS011;60317;48.880;-0.862;2023-07-28T10:23:54;1.27;;;0.90;;
72358;SDS011;60317;48.880;-0.862;2023-07-28T10:26:30;2.00;;;0.95;;
72358;SDS011;60317;48.880;-0.862;2023-07-28T10:29:07;1.30;;;0.88;;
72358;SDS011;60317;48.880;-0.862;2023-07-28T10:31:35;2.45;;;0.93;;
72358;SDS011;60317;48.880;-0.862;2023-07-28T10:34:03;3.65;;;0.90;;
72358;SDS011;60317;48.880;-0.862;2023-07-28T10:36:33;1.08;;;0.90;;
72358;SDS011;60317;48.880;-0.862;2023-07-28T10:39:01;1.30;;;1.05;;
72358;SDS011;60317;48.880;-0.862;2023-07-28T10:41:38;2.08;;;1.00;;
72358;SDS011;60317;48.880;-0.862;2023-07-28T10:44:05;1.10;;;1.00;;
72358;SDS011;60317;48.880;-0.862;2023-07-28T10:46:34;2.83;;;0.93;;
72358;SDS011;60317;48.880;-0.862;2023-07-28T10:49:05;1.75;;;0.82;;
72358;SDS011;60317;48.880;-0.862;2023-07-28T10:51:31;1.85;;;0.90;;
72358;SDS011;60317;48.880;-0.862;2023-07-28T10:53:58;0.98;;;0.90;;
72358;SDS011;60317;48.880;-0.862;2023-07-28T10:56:26;1.88;;;1.00;;
72358;SDS011;60317;48.880;-0.862;2023-07-28T10:58:56;1.80;;;1.10;;
72358;SDS011;60317;48.880;-0.862;2023-07-28T11:01:24;4.80;;;1.00;;
72358;SDS011;60317;48.880;-0.862;2023-07-28T11:03:56;0.77;;;0.73;;
72358;SDS011;60317;48.880;-0.862;2023-07-28T11:06:24;2.25;;;0.75;;
72358;SDS011;60317;48.880;-0.862;2023-07-28T11:08:51;1.88;;;0.98;;
72358;SDS011;60317;48.880;-0.862;2023-07-28T11:11:18;1.10;;;1.00;;
72358;SDS011;60317;48.880;-0.862;2023-07-28T11:13:44;1.67;;;0.80;;
72358;SDS011;60317;48.880;-0.862;2023-07-28T11:16:11;3.05;;;0.93;;
72358;SDS011;60317;48.880;-0.862;2023-07-28T11:18:37;1.02;;;0.98;;
72358;SDS011;60317;48.880;-0.862;2023-07-28T11:21:04;1.75;;;0.80;;
72358;SDS011;60317;48.880;-0.862;2023-07-28T11:23:32;0.70;;;0.63;;
72358;SDS011;60317;48.880;-0.862;2023-07-28T11:25:58;1.02;;;0.80;;
72358;SDS011;60317;48.880;-0.862;2023-07-28T11:28:25;1.13;;;0.70;;
72358;SDS011;60317;48.880;-0.862;2023-07-28T11:30:51;1.25;;;1.05;;
72358;SDS011;60317;48.880;-0.862;2023-07-28T11:33:19;0.80;;;0.80;;
72358;SDS011;60317;48.880;-0.862;2023-07-28T11:35:45;1.27;;;0.75;;
72358;SDS011;60317;48.880;-0.862;2023-07-28T11:38:12;0.95;;;0.90;;
72358;SDS011;60317;48.880;-0.862;2023-07-28T11:40:42;1.40;;;0.95;;
72358;SDS011;60317;48.880;-0.862;2023-07-28T11:43:09;3.17;;;1.00;;
72358;SDS011;60317;48.880;-0.862;2023-07-28T11:45:36;2.50;;;0.63;;
72358;SDS011;60317;48.880;-0.862;2023-07-28T11:48:03;1.23;;;0.80;;
72358;SDS011;60317;48.880;-0.862;2023-07-28T11:50:34;1.20;;;0.93;;
72358;SDS011;60317;48.880;-0.862;2023-07-28T11:53:02;1.05;;;0.75;;
72358;SDS011;60317;48.880;-0.862;2023-07-28T11:55:30;1.17;;;0.82;;
72358;SDS011;60317;48.880;-0.862;2023-07-28T11:57:57;3.17;;;0.70;;
72358;SDS011;60317;48.880;-0.862;2023-07-28T12:00:24;1.48;;;0.80;;
72358;SDS011;60317;48.880;-0.862;2023-07-28T12:05:32;3.10;;;0.82;;
72358;SDS011;60317;48.880;-0.862;2023-07-28T12:08:00;0.70;;;0.70;;
72358;SDS011;60317;48.880;-0.862;2023-07-28T12:10:27;1.95;;;0.73;;
72358;SDS011;60317;48.880;-0.862;2023-07-28T12:13:02;1.48;;;0.73;;
72358;SDS011;60317;48.880;-0.862;2023-07-28T12:15:33;0.80;;;0.60;;
72358;SDS011;60317;48.880;-0.862;2023-07-28T12:18:08;1.65;;;0.70;;
72358;SDS011;60317;48.880;-0.862;2023-07-28T12:20:39;2.00;;;1.00;;
72358;SDS011;60317;48.880;-0.862;2023-07-28T12:23:07;1.80;;;0.68;;
72358;SDS011;60317;48.880;-0.862;2023-07-28T12:25:37;0.95;;;0.57;;
72358;SDS011;60317;48.880;-0.862;2023-07-28T12:28:05;1.00;;;0.63;;
72358;SDS011;60317;48.880;-0.862;2023-07-28T12:30:44;0.93;;;0.80;;
72358;SDS011;60317;48.880;-0.862;2023-07-28T12:33:11;2.22;;;0.70;;
72358;SDS011;60317;48.880;-0.862;2023-07-28T12:35:40;1.50;;;0.70;;
72358;SDS011;60317;48.880;-0.862;2023-07-28T12:38:10;3.15;;;0.82;;
72358;SDS011;60317;48.880;-0.862;2023-07-28T12:40:39;1.00;;;0.60;;
72358;SDS011;60317;48.880;-0.862;2023-07-28T12:43:10;0.95;;;0.63;;
72358;SDS011;60317;48.880;-0.862;2023-07-28T12:45:57;2.53;;;0.45;;
72358;SDS011;60317;48.880;-0.862;2023-07-28T12:48:26;1.10;;;0.65;;
72358;SDS011;60317;48.880;-0.862;2023-07-28T12:50:53;0.65;;;0.65;;
72358;SDS011;60317;48.880;-0.862;2023-07-28T12:53:22;0.77;;;0.50;;
72358;SDS011;60317;48.880;-0.862;2023-07-28T12:55:49;2.17;;;0.77;;
72358;SDS011;60317;48.880;-0.862;2023-07-28T12:58:20;0.75;;;0.70;;
72358;SDS011;60317;48.880;-0.862;2023-07-28T13:00:49;0.93;;;0.80;;
72358;SDS011;60317;48.880;-0.862;2023-07-28T13:03:19;1.27;;;0.98;;
72358;SDS011;60317;48.880;-0.862;2023-07-28T13:05:46;1.42;;;0.57;;
72358;SDS011;60317;48.880;-0.862;2023-07-28T13:08:12;0.98;;;0.60;;
72358;SDS011;60317;48.880;-0.862;2023-07-28T13:10:39;1.75;;;0.75;;
72358;SDS011;60317;48.880;-0.862;2023-07-28T13:13:08;2.03;;;0.85;;
72358;SDS011;60317;48.880;-0.862;2023-07-28T13:15:39;0.88;;;0.60;;
72358;SDS011;60317;48.880;-0.862;2023-07-28T13:18:06;1.52;;;0.85;;
72358;SDS011;60317;48.880;-0.862;2023-07-28T13:20:33;2.38;;;0.85;;
72358;SDS011;60317;48.880;-0.862;2023-07-28T13:22:59;0.80;;;0.73;;
72358;SDS011;60317;48.880;-0.862;2023-07-28T13:25:26;1.15;;;0.80;;
72358;SDS011;60317;48.880;-0.862;2023-07-28T13:27:52;0.88;;;0.70;;
72358;SDS011;60317;48.880;-0.862;2023-07-28T13:30:20;0.60;;;0.60;;
72358;SDS011;60317;48.880;-0.862;2023-07-28T13:32:48;0.70;;;0.70;;
72358;SDS011;60317;48.880;-0.862;2023-07-28T13:35:14;1.98;;;0.55;;
72358;SDS011;60317;48.880;-0.862;2023-07-28T13:37:41;1.42;;;0.47;;
72358;SDS011;60317;48.880;-0.862;2023-07-28T13:40:08;0.80;;;0.70;;
72358;SDS011;60317;48.880;-0.862;2023-07-28T13:42:38;0.95;;;0.75;;
72358;SDS011;60317;48.880;-0.862;2023-07-28T13:45:04;1.08;;;0.80;;
72358;SDS011;60317;48.880;-0.862;2023-07-28T13:47:31;1.75;;;0.80;;
72358;SDS011;60317;48.880;-0.862;2023-07-28T13:49:59;2.20;;;0.80;;
72358;SDS011;60317;48.880;-0.862;2023-07-28T13:52:26;0.93;;;0.80;;
72358;SDS011;60317;48.880;-0.862;2023-07-28T13:54:53;1.58;;;1.00;;
72358;SDS011;60317;48.880;-0.862;2023-07-28T13:57:22;0.82;;;0.57;;
72358;SDS011;60317;48.880;-0.862;2023-07-28T13:59:49;4.68;;;0.60;;
72358;SDS011;60317;48.880;-0.862;2023-07-28T14:02:16;2.35;;;0.90;;
72358;SDS011;60317;48.880;-0.862;2023-07-28T14:04:43;1.08;;;0.77;;
72358;SDS011;60317;48.880;-0.862;2023-07-28T14:07:11;2.13;;;1.02;;
72358;SDS011;60317;48.880;-0.862;2023-07-28T14:09:37;1.35;;;0.80;;
72358;SDS011;60317;48.880;-0.862;2023-07-28T14:12:05;0.77;;;0.68;;
72358;SDS011;60317;48.880;-0.862;2023-07-28T14:14:32;3.63;;;0.95;;
72358;SDS011;60317;48.880;-0.862;2023-07-28T14:16:58;7.07;;;0.75;;
72358;SDS011;60317;48.880;-0.862;2023-07-28T14:19:25;1.05;;;0.90;;
72358;SDS011;60317;48.880;-0.862;2023-07-28T14:21:51;1.02;;;0.70;;
72358;SDS011;60317;48.880;-0.862;2023-07-28T14:24:19;0.68;;;0.68;;
72358;SDS011;60317;48.880;-0.862;2023-07-28T14:26:46;1.20;;;0.77;;
72358;SDS011;60317;48.880;-0.862;2023-07-28T14:29:12;1.15;;;0.75;;
72358;SDS011;60317;48.880;-0.862;2023-07-28T14:31:39;0.85;;;0.68;;
72358;SDS011;60317;48.880;-0.862;2023-07-28T14:34:06;1.05;;;0.80;;
72358;SDS011;60317;48.880;-0.862;2023-07-28T14:36:32;0.95;;;0.68;;
72358;SDS011;60317;48.880;-0.862;2023-07-28T14:38:59;1.05;;;0.95;;